Time;durP1;ratioP1;P1;durP2;ratioP2;P2;SDS_P1;SDS_P2;PMS_P1;PMS_P2;Temp;Humidity;BMP_temperature;BMP_pressure;BME280_temperature;BME280_humidity;BME280_pressure;Samples;Min_cycle;Max_cycle;Signal;HPM_P1;HPM_P2
2021/04/05 00:01:59;;;;;;;12.2;8.4;;;;;;;0.47;82.32617;98297.01;;;;
2021/04/05 00:11:59;;;;;;;11.6;7.4;;;;;;;0.57;81.08984;98277.74;;;;
2021/04/05 00:21:54;;;;;;;12;7.5;;;;;;;0.76;79.81543;98273.7;;;;
2021/04/05 00:31:51;;;;;;;9.2;6.5;;;;;;;0.84;78.5957;98251.19;;;;
2021/04/05 00:41:48;;;;;;;9.6;5.8;;;;;;;0.91;78.125;98241.97;;;;
2021/04/05 00:51:46;;;;;;;7.8;5.1;;;;;;;0.93;78.09375;98220.52;;;;
2021/04/05 01:01:43;;;;;;;9.3;5.4;;;;;;;0.93;77.63281;98208.05;;;;
2021/04/05 01:11:41;;;;;;;8;5.3;;;;;;;0.9;77.87891;98192.61;;;;
2021/04/05 01:21:40;;;;;;;9;5.7;;;;;;;0.86;77.72949;98162.38;;;;
2021/04/05 01:31:39;;;;;;;7.4;5.7;;;;;;;0.89;77.41504;98161.86;;;;
2021/04/05 01:41:33;;;;;;;10.7;5.6;;;;;;;0.88;77.73242;98139.03;;;;
2021/04/05 01:51:31;;;;;;;7.9;4.1;;;;;;;0.95;76.83008;98118.38;;;;
2021/04/05 02:01:28;;;;;;;9.2;4.8;;;;;;;0.78;77.57129;98104.48;;;;
2021/04/05 02:21:23;;;;;;;8.5;4.4;;;;;;;0.84;77.07422;98074.28;;;;
2021/04/05 02:31:21;;;;;;;7.3;4.2;;;;;;;0.79;76.7002;98052.24;;;;
2021/04/05 02:41:18;;;;;;;9.1;5.1;;;;;;;0.65;77.10449;98045.8;;;;
2021/04/05 02:51:16;;;;;;;5.9;3.8;;;;;;;0.65;77.16016;98029.89;;;;
2021/04/05 03:01:13;;;;;;;8.6;3.9;;;;;;;0.63;77.33301;98022.18;;;;
2021/04/05 03:11:11;;;;;;;6.8;3.9;;;;;;;0.41;78.19922;98001.14;;;;
2021/04/05 03:21:08;;;;;;;5.2;3.2;;;;;;;0.56;77.68555;97973.89;;;;
2021/04/05 03:31:06;;;;;;;5.1;3.7;;;;;;;0.76;77.41211;97958.09;;;;
2021/04/05 03:41:03;;;;;;;7.4;3.9;;;;;;;0.66;77.82422;97939.46;;;;
2021/04/05 03:51:01;;;;;;;8.5;4.1;;;;;;;0.63;78.09375;97928.58;;;;
2021/04/05 04:00:58;;;;;;;6.2;3.9;;;;;;;0.56;77.69629;97910.26;;;;
2021/04/05 04:10:56;;;;;;;13.5;3.9;;;;;;;0.59;78.06445;97893.83;;;;
2021/04/05 04:20:53;;;;;;;6.5;4.6;;;;;;;0.66;78.36328;97880.36;;;;
2021/04/05 04:30:51;;;;;;;6;4.1;;;;;;;0.66;78.05566;97849.31;;;;
2021/04/05 04:40:48;;;;;;;9.1;3.9;;;;;;;0.87;78.28125;97820.97;;;;
2021/04/05 04:50:46;;;;;;;6;4;;;;;;;1.15;77.40625;97796.58;;;;
2021/04/05 05:00:43;;;;;;;7.3;5.5;;;;;;;1.39;77.17285;97783.55;;;;
2021/04/05 05:10:41;;;;;;;5.4;3.6;;;;;;;1.72;74.8457;97772.34;;;;
2021/04/05 05:20:38;;;;;;;6.8;3.7;;;;;;;2.18;73.16504;97753.58;;;;
2021/04/05 05:30:37;;;;;;;7.3;3.4;;;;;;;2.55;72.21875;97721.97;;;;
2021/04/05 05:40:33;;;;;;;5.2;3.3;;;;;;;2.95;70.52246;97703.02;;;;
2021/04/05 05:50:31;;;;;;;4.6;2.8;;;;;;;3.45;68.96973;97699.08;;;;
2021/04/05 06:00:29;;;;;;;5.3;2.8;;;;;;;3.97;68.23828;97681.41;;;;
2021/04/05 06:10:27;;;;;;;6.5;3.5;;;;;;;4.38;65.30273;97681.63;;;;
2021/04/05 06:20:25;;;;;;;6.2;3.9;;;;;;;4.77;63.78711;97652.73;;;;
2021/04/05 06:30:25;;;;;;;5.5;3.4;;;;;;;5.15;62.16504;97631.24;;;;
2021/04/05 06:40:21;;;;;;;5.9;3.4;;;;;;;5.59;62.16211;97618.08;;;;
2021/04/05 06:50:19;;;;;;;5.5;2.9;;;;;;;6.06;59.70508;97598.92;;;;
2021/04/05 07:00:17;;;;;;;7.3;3.7;;;;;;;6.49;58.60742;97598.47;;;;
2021/04/05 07:10:15;;;;;;;6.8;3.6;;;;;;;6.84;58.49707;97588.73;;;;
2021/04/05 07:20:13;;;;;;;4.8;2.7;;;;;;;7.21;57.67969;97592.86;;;;
2021/04/05 07:30:13;;;;;;;4.4;2.7;;;;;;;7.44;56.86621;97560.3;;;;
2021/04/05 07:40:09;;;;;;;7.5;3.3;;;;;;;7.96;57.20508;97569.2;;;;
2021/04/05 07:50:08;;;;;;;6.3;3.3;;;;;;;8.22;56.4707;97560.38;;;;
2021/04/05 08:00:07;;;;;;;6.6;3.2;;;;;;;8.59;54.65625;97541.71;;;;
2021/04/05 08:10:05;;;;;;;6;4;;;;;;;8.63;55.91406;97516.9;;;;
2021/04/05 08:20:03;;;;;;;6.7;4.3;;;;;;;9.13;54.53125;97498.98;;;;
2021/04/05 08:30:01;;;;;;;7.8;5.1;;;;;;;9.33;53.79688;97481.34;;;;
2021/04/05 08:40:00;;;;;;;8.1;4.6;;;;;;;9.71;53.1416;97465.88;;;;
2021/04/05 08:49:58;;;;;;;9.6;4.4;;;;;;;10.13;52.91895;97438.91;;;;
2021/04/05 08:59:57;;;;;;;7;4.2;;;;;;;10.36;51.44824;97415.88;;;;
2021/04/05 09:09:56;;;;;;;6.1;2.9;;;;;;;10.55;51.24414;97408.06;;;;
2021/04/05 09:20:09;;;;;;;6.6;4.3;;;;;;;10.9;51.6709;97381.42;;;;
2021/04/05 09:29:53;;;;;;;5.9;3.6;;;;;;;10.69;50.75879;97370.77;;;;
2021/04/05 09:39:52;;;;;;;7;4.3;;;;;;;10.86;50.84668;97340.12;;;;
2021/04/05 09:49:51;;;;;;;5.1;3.3;;;;;;;11.25;50.83496;97333.16;;;;
2021/04/05 09:59:49;;;;;;;6.7;4.7;;;;;;;11.78;49.09668;97319.26;;;;
2021/04/05 10:09:48;;;;;;;5.8;3.7;;;;;;;12.01;49.81738;97289.75;;;;
2021/04/05 10:19:47;;;;;;;8.7;4.2;;;;;;;12.09;47.7959;97270.69;;;;
2021/04/05 10:29:46;;;;;;;8.4;4.5;;;;;;;12.5;47.57617;97249.63;;;;
2021/04/05 10:39:45;;;;;;;13.8;4.6;;;;;;;12.87;48.28027;97223.02;;;;
2021/04/05 10:49:44;;;;;;;11.8;4.4;;;;;;;12.7;46.44336;97205.3;;;;
2021/04/05 10:59:43;;;;;;;6.5;3.4;;;;;;;12.93;45.24219;97184.52;;;;
2021/04/05 11:09:42;;;;;;;7.7;5.7;;;;;;;13.55;42.48438;97164.44;;;;
2021/04/05 11:19:47;;;;;;;3.8;2.1;;;;;;;13.75;39.78125;97173.27;;;;
2021/04/05 11:29:42;;;;;;;5.8;2.8;;;;;;;13.57;37.9043;97155.97;;;;
2021/04/05 11:39:39;;;;;;;10.6;7.8;;;;;;;13.89;37.49414;97138.28;;;;
2021/04/05 11:49:38;;;;;;;14.3;8.2;;;;;;;13.91;34.82617;97110.85;;;;
2021/04/05 11:59:47;;;;;;;8.1;4.8;;;;;;;13.2;36.86035;97065.63;;;;
2021/04/05 12:09:44;;;;;;;6;2.7;;;;;;;13.55;37.84473;97077.81;;;;
2021/04/05 12:19:42;;;;;;;6.4;2.8;;;;;;;13.44;35.60547;97059.83;;;;
2021/04/05 12:29:40;;;;;;;3.3;2.2;;;;;;;13.57;37.80078;97058.52;;;;
2021/04/05 12:39:33;;;;;;;4.1;2.2;;;;;;;14.21;35.70215;97030.37;;;;
2021/04/05 12:49:33;;;;;;;5;2.2;;;;;;;14.47;34.55957;97016;;;;
2021/04/05 12:59:32;;;;;;;5.8;3;;;;;;;14.59;34.37305;97007.59;;;;
2021/04/05 13:09:31;;;;;;;4.6;2.3;;;;;;;14.73;32.45703;96972.48;;;;
2021/04/05 13:19:30;;;;;;;4.6;2.1;;;;;;;14.31;31.37598;96964.67;;;;
2021/04/05 13:29:30;;;;;;;3.7;2.3;;;;;;;13.96;34.41504;96969.67;;;;
2021/04/05 13:39:29;;;;;;;4.2;2.8;;;;;;;13.78;35.78223;96968.7;;;;
2021/04/05 13:49:28;;;;;;;6.5;4.1;;;;;;;13.29;36.16699;96936.31;;;;
2021/04/05 13:59:27;;;;;;;4.7;3.1;;;;;;;12.63;35.78027;96942.19;;;;
2021/04/05 14:09:26;;;;;;;5.2;2.8;;;;;;;12.33;36.36328;96950.92;;;;
2021/04/05 14:19:25;;;;;;;7.5;4;;;;;;;12.29;37.4375;96933.08;;;;
2021/04/05 14:29:25;;;;;;;7.2;4.1;;;;;;;12.02;37.75781;96932.2;;;;
2021/04/05 14:39:23;;;;;;;8.7;3.4;;;;;;;11.93;38.36816;96910.84;;;;
2021/04/05 14:49:22;;;;;;;5.6;2.5;;;;;;;11.76;39.53223;96876.19;;;;
2021/04/05 14:59:21;;;;;;;7.1;4.6;;;;;;;11.5;39.0166;96862.52;;;;
2021/04/05 15:09:20;;;;;;;6.3;3.1;;;;;;;11.41;39.27148;96838.47;;;;
2021/04/05 15:19:19;;;;;;;7.5;3.4;;;;;;;11.4;39.55664;96828.8;;;;
2021/04/05 15:29:17;;;;;;;6.4;4.1;;;;;;;11.26;40.27539;96815.03;;;;
2021/04/05 15:39:16;;;;;;;6.1;3.4;;;;;;;11.3;40.74707;96790.83;;;;
2021/04/05 15:49:15;;;;;;;12.4;4.9;;;;;;;11.22;41.87012;96767.55;;;;
2021/04/05 15:59:14;;;;;;;6.6;3.3;;;;;;;11.2;40.37207;96742.87;;;;
2021/04/05 16:09:12;;;;;;;7.7;4.7;;;;;;;12.24;39.79297;96728.9;;;;
2021/04/05 16:19:11;;;;;;;9.3;3.1;;;;;;;12.02;38.45605;96716.2;;;;
2021/04/05 16:29:10;;;;;;;6.3;3.2;;;;;;;11.73;39.47266;96698.75;;;;
2021/04/05 16:39:09;;;;;;;5.7;2.7;;;;;;;11.5;39.88574;96690.64;;;;
2021/04/05 16:49:08;;;;;;;7.3;4;;;;;;;11.34;39.95117;96662.23;;;;
2021/04/05 16:59:07;;;;;;;8.1;3.6;;;;;;;11.23;40.35254;96667.44;;;;
2021/04/05 17:09:07;;;;;;;6.6;2.6;;;;;;;11.27;39.54395;96694.46;;;;
2021/04/05 17:19:05;;;;;;;5.5;3.1;;;;;;;11.1;40.2832;96709.17;;;;
2021/04/05 17:29:03;;;;;;;7.5;3.9;;;;;;;11.02;40.92676;96719.04;;;;
2021/04/05 17:39:02;;;;;;;8.3;3.9;;;;;;;11.18;40.71289;96734.34;;;;
2021/04/05 17:49:01;;;;;;;6.3;3.3;;;;;;;11.33;40.62402;96749.66;;;;
2021/04/05 17:59:00;;;;;;;6.1;2.6;;;;;;;11.5;40.02246;96751.91;;;;
2021/04/05 18:08:59;;;;;;;5.4;2.9;;;;;;;11.24;42.68262;96795.73;;;;
2021/04/05 18:18:58;;;;;;;9.8;3;;;;;;;10.69;47.67578;96839.21;;;;
2021/04/05 18:28:56;;;;;;;10.5;4.1;;;;;;;9.84;56.10547;96835.17;;;;
2021/04/05 18:38:55;;;;;;;5.5;3.6;;;;;;;9.2;60.16113;96864.13;;;;
2021/04/05 18:48:53;;;;;;;7.4;3.6;;;;;;;9.04;60.34277;96882.85;;;;
2021/04/05 18:58:52;;;;;;;7.2;3.6;;;;;;;8.71;64.52734;96911.77;;;;
2021/04/05 19:08:50;;;;;;;8.4;4.7;;;;;;;7.4;85.25684;96966.2;;;;
2021/04/05 19:18:49;;;;;;;16.2;7.5;;;;;;;6.62;99.75781;96994.51;;;;
2021/04/05 19:29:09;;;;;;;8.8;6.4;;;;;;;6.41;100;97008.59;;;;
2021/04/05 19:38:52;;;;;;;13.2;7.9;;;;;;;6.18;100;97035.86;;;;
2021/04/05 19:49:07;;;;;;;6.2;2.8;;;;;;;5.11;100;97070.25;;;;
2021/04/05 19:58:53;;;;;;;4.1;1.8;;;;;;;4.21;100;97103.5;;;;
2021/04/05 20:09:04;;;;;;;2.6;1.6;;;;;;;2.91;100;97145.88;;;;
2021/04/05 20:18:41;;;;;;;3.5;1.9;;;;;;;2.41;100;97182.06;;;;
2021/04/05 20:28:35;;;;;;;6.2;3.4;;;;;;;2.01;100;97196.7;;;;
2021/04/05 20:38:33;;;;;;;9.2;4.5;;;;;;;1.53;100;97219.86;;;;
2021/04/05 20:48:30;;;;;;;5.5;3.8;;;;;;;1.12;100;97249.74;;;;
2021/04/05 20:58:28;;;;;;;8.3;5;;;;;;;0.78;100;97269.13;;;;
2021/04/05 21:08:25;;;;;;;9.3;5.5;;;;;;;0.65;100;97288.31;;;;
2021/04/05 21:18:23;;;;;;;9.1;4.8;;;;;;;0.61;100;97313.78;;;;
2021/04/05 21:28:20;;;;;;;5.3;3.7;;;;;;;0.54;100;97349.61;;;;
2021/04/05 21:38:17;;;;;;;7.7;5.7;;;;;;;0.4;100;97371.41;;;;
2021/04/05 21:48:15;;;;;;;11.5;5.1;;;;;;;0.4;100;97383.86;;;;
2021/04/05 21:58:12;;;;;;;7.3;4.5;;;;;;;0.45;100;97399.76;;;;
2021/04/05 22:08:10;;;;;;;3.7;2.1;;;;;;;0.41;100;97404.01;;;;
2021/04/05 22:18:07;;;;;;;5.1;2;;;;;;;0.25;100;97426.3;;;;
2021/04/05 22:28:05;;;;;;;4;1.8;;;;;;;-0.07;100;97421.36;;;;
2021/04/05 22:38:02;;;;;;;4;1.7;;;;;;;0.04;100;97399.06;;;;
2021/04/05 22:48:00;;;;;;;4;1.9;;;;;;;0.14;100;97416.81;;;;
2021/04/05 22:57:57;;;;;;;4.3;2.6;;;;;;;0.06;100;97404.11;;;;
2021/04/05 23:07:54;;;;;;;4;1.9;;;;;;;-0.06;100;97399.09;;;;
2021/04/05 23:17:52;;;;;;;1.4;0.6;;;;;;;-0.05;100;97382.95;;;;
2021/04/05 23:27:49;;;;;;;4.3;2.5;;;;;;;-0.02;100;97397.5;;;;
2021/04/05 23:37:47;;;;;;;5.7;2.2;;;;;;;-0.2;100;97427.98;;;;
2021/04/05 23:47:44;;;;;;;4.5;2.4;;;;;;;-0.18;100;97448.91;;;;
2021/04/05 23:57:44;;;;;;;5.3;3.1;;;;;;;-0.14;100;97463.97;;;;
